Arlington, Oregon
Current Conditions -  °F | °C
As of 7:22 PM on Thursday 18 Dec 2014 (Local Time) from KHRI Reporting Station
Haze Haze  
Wind Chill: 38°   Ceiling: 500
Heat Index: 38°   Visibility: 1.7mi
Dew Point: 37°   Wind: 0mph
Humidity: 97%   Direction: NA
Pressure: 29.93"   Gusts: NA
Location:  45.72°N, 120.2°W
Report Text: KHRI 190322Z AUTO 00000KT 1 3/4SM BR OVC005 03/03 A2993 RMK AO2 T00330028
Loading
Personal Weather Stations






























Interactive Weather Map New forecast layout! Learn more

10-Day Weather Forecast

Advertisements
Track Severe Weather on mobile